Time;durP1;ratioP1;P1;durP2;ratioP2;P2;SDS_P1;SDS_P2;PMS_P1;PMS_P2;Temp;Humidity;BMP_temperature;BMP_pressure;BME280_temperature;BME280_humidity;BME280_pressure;Samples;Min_cycle;Max_cycle;Signal;HPM_P1;HPM_P2
2021/12/12 00:01:14;;;;;;;13.15;11.68;;;18.00;44.50;;;;;;5067371;28;20322;-68
2021/12/12 00:03:47;;;;;;;16.55;12.70;;;17.90;44.50;;;;;;5072675;28;20221;-69
2021/12/12 00:06:15;;;;;;;14.85;12.00;;;17.90;44.50;;;;;;5074051;28;20194;-68
2021/12/12 00:08:44;;;;;;;13.45;11.65;;;17.90;44.40;;;;;;5075281;28;20191;-68
2021/12/12 00:11:14;;;;;;;13.15;11.38;;;17.80;44.50;;;;;;5073825;28;20232;-68
2021/12/12 00:13:44;;;;;;;11.85;10.57;;;17.80;44.50;;;;;;5073939;28;20195;-68
2021/12/12 00:16:12;;;;;;;12.13;10.52;;;17.80;44.50;;;;;;5075173;28;20206;-69
2021/12/12 00:18:39;;;;;;;12.10;10.82;;;17.80;44.40;;;;;;5073939;28;20343;-69
2021/12/12 00:21:06;;;;;;;12.65;11.23;;;17.80;44.60;;;;;;5074891;28;20305;-69
2021/12/12 00:23:34;;;;;;;12.18;10.77;;;17.70;44.60;;;;;;5073709;28;20207;-69
2021/12/12 01:24:01;;;;;;;10.25;8.88;;;17.30;45.10;;;;;;5128178;27;20944;-55
2021/12/12 01:26:29;;;;;;;9.75;8.82;;;17.20;44.80;;;;;;5127179;27;20213;-55
2021/12/12 01:28:57;;;;;;;9.32;8.35;;;17.30;44.80;;;;;;5111520;28;20253;-56
2021/12/12 01:31:28;;;;;;;9.25;8.35;;;17.30;44.70;;;;;;5110140;28;20189;-56
2021/12/12 01:33:59;;;;;;;9.32;8.40;;;17.30;44.80;;;;;;5110151;28;20552;-56
2021/12/12 01:36:28;;;;;;;9.68;8.75;;;17.30;44.60;;;;;;5111438;28;20225;-55
2021/12/12 01:38:57;;;;;;;9.32;8.35;;;17.30;44.60;;;;;;5109688;28;20197;-55
2021/12/12 01:41:28;;;;;;;9.00;8.10;;;17.30;44.40;;;;;;5109951;28;20552;-55
2021/12/12 01:43:57;;;;;;;8.60;7.75;;;17.40;44.50;;;;;;5110315;28;20689;-55
2021/12/12 01:46:27;;;;;;;8.57;7.75;;;17.40;44.50;;;;;;5109400;28;20221;-55
2021/12/12 01:48:56;;;;;;;9.13;8.23;;;17.40;44.50;;;;;;5110915;28;20605;-55
2021/12/12 01:51:23;;;;;;;8.57;7.68;;;17.40;44.40;;;;;;5110657;28;20268;-55
2021/12/12 01:53:52;;;;;;;8.30;7.50;;;17.50;44.30;;;;;;5109494;28;20622;-55
2021/12/12 01:56:20;;;;;;;9.35;8.38;;;17.40;44.30;;;;;;5109694;28;20213;-55
2021/12/12 01:58:52;;;;;;;8.45;7.65;;;17.40;44.30;;;;;;5109364;28;20306;-55
2021/12/12 02:01:21;;;;;;;9.23;8.32;;;17.40;44.30;;;;;;5110712;28;20206;-55
2021/12/12 02:03:54;;;;;;;8.63;7.82;;;17.40;44.30;;;;;;5109253;28;20561;-55
2021/12/12 02:06:22;;;;;;;8.43;7.63;;;17.40;44.20;;;;;;5109434;28;20245;-55
2021/12/12 02:08:51;;;;;;;7.38;6.68;;;17.50;44.20;;;;;;5109544;28;20223;-55
2021/12/12 02:11:20;;;;;;;7.70;7.00;;;17.50;44.10;;;;;;5104327;23;20225;-66
2021/12/12 02:13:50;;;;;;;8.82;7.68;;;17.50;43.90;;;;;;5088763;28;20608;-67
2021/12/12 02:16:18;;;;;;;8.40;7.60;;;17.60;43.90;;;;;;5090288;28;20179;-68
2021/12/12 02:18:48;;;;;;;8.40;7.57;;;17.50;43.90;;;;;;5088700;28;20658;-67
2021/12/12 02:21:21;;;;;;;8.35;7.55;;;17.60;43.90;;;;;;5088883;28;20246;-69
2021/12/12 02:24:20;;;;;;;7.50;6.90;;;17.50;43.80;;;;;;5089726;28;20681;-67
2021/12/12 02:35:15;;;;;;;7.97;7.18;;;17.60;43.90;;;;;;5077718;28;20167;-67
2021/12/12 02:37:43;;;;;;;8.20;7.40;;;17.60;43.90;;;;;;5074942;28;20186;-66
2021/12/12 02:40:14;;;;;;;7.95;7.20;;;17.60;43.90;;;;;;5074804;28;20214;-69
2021/12/12 02:42:41;;;;;;;7.53;6.70;;;17.60;43.90;;;;;;5075962;28;20195;-66
2021/12/12 02:45:09;;;;;;;7.35;6.75;;;17.50;43.70;;;;;;5074894;28;20226;-69
2021/12/12 02:47:36;;;;;;;7.07;6.40;;;17.60;43.90;;;;;;5074679;28;20191;-68
2021/12/12 02:50:11;;;;;;;7.47;6.72;;;17.60;43.80;;;;;;5074686;28;20229;-67
2021/12/12 02:52:38;;;;;;;7.18;6.57;;;17.60;43.90;;;;;;5074731;28;20669;-67
2021/12/12 02:55:08;;;;;;;7.40;6.70;;;17.60;43.90;;;;;;5074461;28;20199;-67
2021/12/12 02:57:37;;;;;;;7.38;6.68;;;17.60;43.90;;;;;;5074411;28;20199;-66
2021/12/12 03:00:07;;;;;;;7.72;6.95;;;17.60;43.80;;;;;;5074591;28;20218;-67
2021/12/12 03:02:40;;;;;;;7.00;6.40;;;17.60;43.80;;;;;;5074245;28;20253;-68
2021/12/12 03:05:08;;;;;;;7.00;6.30;;;17.60;43.70;;;;;;5074394;28;20187;-65
2021/12/12 03:07:35;;;;;;;7.15;6.50;;;17.60;43.70;;;;;;5075938;28;20195;-67
2021/12/12 03:10:03;;;;;;;7.47;6.78;;;17.60;43.70;;;;;;5074114;28;20250;-67
2021/12/12 03:12:34;;;;;;;6.40;5.80;;;17.60;43.40;;;;;;5074404;28;20214;-68
2021/12/12 03:15:06;;;;;;;6.82;6.22;;;17.60;43.60;;;;;;5075420;28;20654;-66
2021/12/12 03:17:33;;;;;;;6.53;5.93;;;17.60;43.50;;;;;;5074579;28;20642;-67
2021/12/12 03:20:05;;;;;;;7.00;6.30;;;17.70;43.50;;;;;;5074260;28;20615;-68
2021/12/12 03:22:33;;;;;;;6.55;5.95;;;17.70;43.70;;;;;;5074277;28;20214;-65
2021/12/12 03:25:00;;;;;;;7.03;6.32;;;17.60;44.10;;;;;;5075566;28;20206;-66
2021/12/12 03:27:28;;;;;;;7.00;6.30;;;17.60;43.60;;;;;;5074176;28;20640;-68
2021/12/12 03:29:55;;;;;;;6.18;5.57;;;17.60;43.60;;;;;;5073895;28;20254;-68
2021/12/12 03:32:24;;;;;;;7.30;6.60;;;17.70;43.50;;;;;;5073964;28;20366;-67
2021/12/12 03:34:53;;;;;;;7.35;6.60;;;17.70;43.40;;;;;;5073692;28;20195;-69
2021/12/12 03:37:22;;;;;;;6.53;5.93;;;17.70;43.40;;;;;;5073958;28;20198;-67
2021/12/12 03:39:52;;;;;;;7.00;6.40;;;17.70;43.40;;;;;;5073583;28;20218;-69
2021/12/12 03:42:22;;;;;;;6.95;6.25;;;17.70;43.40;;;;;;5073797;28;20625;-68
2021/12/12 03:44:49;;;;;;;6.75;6.15;;;17.70;43.30;;;;;;5073592;28;20202;-69
2021/12/12 03:47:20;;;;;;;6.82;6.22;;;17.70;43.30;;;;;;5074403;28;20652;-67
2021/12/12 03:49:48;;;;;;;6.72;6.00;;;17.70;43.30;;;;;;5074756;28;20238;-68
2021/12/12 03:52:16;;;;;;;5.93;5.38;;;17.70;43.30;;;;;;5073235;28;20256;-67
2021/12/12 03:54:47;;;;;;;6.03;5.50;;;17.70;43.30;;;;;;5073681;28;20236;-67
2021/12/12 03:57:14;;;;;;;6.50;6.00;;;17.70;43.20;;;;;;5073759;28;20187;-67
2021/12/12 03:59:41;;;;;;;6.03;5.53;;;17.70;43.10;;;;;;5074763;28;20628;-69
2021/12/12 04:02:08;;;;;;;6.50;5.90;;;17.70;43.20;;;;;;5074445;28;20198;-67
2021/12/12 04:04:36;;;;;;;5.95;5.32;;;17.70;43.20;;;;;;5073226;28;20225;-66
2021/12/12 04:07:06;;;;;;;5.80;5.30;;;17.70;43.20;;;;;;5073539;28;20229;-67
2021/12/12 04:09:34;;;;;;;5.88;5.38;;;17.60;43.20;;;;;;5073176;28;20325;-68
2021/12/12 04:12:02;;;;;;;5.82;5.35;;;17.70;43.10;;;;;;5073562;28;20194;-68
2021/12/12 04:14:30;;;;;;;5.70;5.20;;;17.60;43.10;;;;;;5074660;28;20742;-67
2021/12/12 04:16:58;;;;;;;5.63;5.13;;;17.60;43.20;;;;;;5073067;28;20202;-66
2021/12/12 04:19:25;;;;;;;5.75;5.20;;;17.70;43.30;;;;;;5074258;28;20210;-66
2021/12/12 04:21:52;;;;;;;5.55;5.05;;;17.70;43.30;;;;;;5073509;28;20569;-68
2021/12/12 04:24:21;;;;;;;5.28;4.88;;;17.70;43.40;;;;;;5073262;28;20229;-65
2021/12/12 04:26:49;;;;;;;5.07;4.57;;;17.70;43.40;;;;;;5073216;28;20256;-67
2021/12/12 04:29:17;;;;;;;5.22;4.82;;;17.60;43.90;;;;;;5073189;28;20191;-66
2021/12/12 04:31:46;;;;;;;4.85;4.45;;;17.60;43.00;;;;;;5072873;28;20213;-69
2021/12/12 04:34:13;;;;;;;5.25;4.85;;;17.60;43.00;;;;;;5073215;28;20630;-69
2021/12/12 04:36:41;;;;;;;5.65;5.15;;;17.60;42.90;;;;;;5073001;28;20615;-67
2021/12/12 04:39:10;;;;;;;5.10;4.70;;;17.60;42.80;;;;;;5073460;28;20195;-68
2021/12/12 04:41:39;;;;;;;5.22;4.72;;;17.60;42.80;;;;;;5073874;28;20707;-66
2021/12/12 04:44:06;;;;;;;5.05;4.63;;;17.60;43.00;;;;;;5077815;28;20561;-70
2021/12/12 04:49:54;;;;;;;4.70;4.30;;;17.70;42.80;;;;;;5080039;28;20218;-68
2021/12/12 04:52:07;;;;;;;4.95;4.55;;;17.70;42.60;;;;;;5073920;28;20191;-66
2021/12/12 04:54:37;;;;;;;5.15;4.75;;;17.60;42.60;;;;;;5073916;28;20235;-67
2021/12/12 04:57:08;;;;;;;5.45;4.95;;;17.60;42.60;;;;;;5079628;28;20209;-69
2021/12/12 04:59:37;;;;;;;5.00;4.55;;;17.60;42.80;;;;;;5084160;28;20238;-69
2021/12/12 05:02:07;;;;;;;5.20;4.70;;;17.50;42.60;;;;;;5081649;28;20207;-66
2021/12/12 05:04:37;;;;;;;5.00;4.50;;;17.60;42.50;;;;;;5082631;28;20218;-69
2021/12/12 05:07:07;;;;;;;5.40;4.90;;;17.60;42.50;;;;;;5075552;28;20665;-69
2021/12/12 05:09:37;;;;;;;5.00;4.57;;;17.60;42.50;;;;;;5077999;28;20222;-70
2021/12/12 05:12:08;;;;;;;5.40;4.60;;;17.60;42.50;;;;;;5073521;28;20203;-70
2021/12/12 05:14:37;;;;;;;5.82;4.80;;;17.60;42.50;;;;;;5073062;28;20186;-69
2021/12/12 05:17:06;;;;;;;5.00;4.60;;;17.50;42.90;;;;;;5073881;28;20199;-69
2021/12/12 05:19:33;;;;;;;5.28;4.78;;;17.50;42.40;;;;;;5073621;28;20685;-68
2021/12/12 05:22:04;;;;;;;4.93;4.53;;;17.50;42.40;;;;;;5073471;28;20206;-68
2021/12/12 05:24:31;;;;;;;4.90;4.50;;;17.50;42.50;;;;;;5073284;28;20215;-68
2021/12/12 05:27:02;;;;;;;5.13;4.72;;;17.50;42.50;;;;;;5072827;28;20282;-68
2021/12/12 05:29:33;;;;;;;4.95;4.45;;;17.50;42.50;;;;;;5073175;28;20697;-69
2021/12/12 05:32:01;;;;;;;4.65;4.15;;;17.50;42.50;;;;;;5072928;28;20215;-68
2021/12/12 05:34:31;;;;;;;4.90;4.50;;;17.50;42.60;;;;;;5073396;28;20226;-70
2021/12/12 05:36:59;;;;;;;4.75;4.43;;;17.40;42.50;;;;;;5072740;28;20198;-68
2021/12/12 05:39:26;;;;;;;4.70;4.30;;;17.40;42.50;;;;;;5072403;28;20284;-66
2021/12/12 05:41:53;;;;;;;5.22;4.53;;;17.40;42.40;;;;;;5072672;28;20195;-69
2021/12/12 05:44:20;;;;;;;6.10;4.43;;;17.40;42.50;;;;;;5072581;28;20226;-68
2021/12/12 05:46:48;;;;;;;4.65;4.25;;;17.40;42.50;;;;;;5072309;28;20211;-68
2021/12/12 05:49:15;;;;;;;4.38;3.97;;;17.40;42.50;;;;;;5072409;28;20221;-68
2021/12/12 05:51:42;;;;;;;5.10;4.70;;;17.40;42.50;;;;;;5072494;28;20690;-67
2021/12/12 05:54:10;;;;;;;4.38;3.97;;;17.40;42.60;;;;;;5072395;28;20561;-69
2021/12/12 05:56:38;;;;;;;4.70;4.30;;;17.40;42.60;;;;;;5072388;28;20206;-66
2021/12/12 05:59:05;;;;;;;4.80;4.47;;;17.40;42.60;;;;;;5072410;28;20282;-66
2021/12/12 06:01:32;;;;;;;4.22;3.92;;;17.40;42.50;;;;;;5072265;28;20738;-68
2021/12/12 06:04:01;;;;;;;4.78;4.38;;;17.40;42.50;;;;;;5072083;28;20300;-67
2021/12/12 06:06:30;;;;;;;4.32;4.03;;;17.40;42.50;;;;;;5073526;28;20195;-67
2021/12/12 06:08:58;;;;;;;4.88;4.32;;;17.40;42.70;;;;;;5072843;28;20205;-66
2021/12/12 06:11:27;;;;;;;4.05;3.75;;;17.30;42.50;;;;;;5075674;28;20741;-67
2021/12/12 06:13:54;;;;;;;4.50;4.10;;;17.30;42.50;;;;;;5077470;28;20238;-67
2021/12/12 06:16:22;;;;;;;4.95;4.47;;;17.30;42.60;;;;;;5075963;28;20195;-69
2021/12/12 06:18:54;;;;;;;4.38;4.05;;;17.30;42.60;;;;;;5075550;28;20209;-66
2021/12/12 06:21:22;;;;;;;4.00;3.70;;;17.30;42.60;;;;;;5076768;28;20238;-67
2021/12/12 06:23:49;;;;;;;4.40;4.00;;;17.30;42.60;;;;;;5075555;28;20214;-68
2021/12/12 06:26:18;;;;;;;4.30;3.90;;;17.30;42.50;;;;;;5076825;28;20220;-69
2021/12/12 06:28:44;;;;;;;4.20;3.90;;;17.40;42.60;;;;;;5075515;28;20194;-69
2021/12/12 06:31:11;;;;;;;4.32;4.03;;;17.30;42.70;;;;;;5075480;28;20229;-67
2021/12/12 06:33:39;;;;;;;4.20;3.90;;;17.30;42.60;;;;;;5075620;28;20199;-66
2021/12/12 06:36:06;;;;;;;4.47;4.07;;;17.30;42.60;;;;;;5075043;28;20203;-67
2021/12/12 06:38:35;;;;;;;4.43;4.05;;;17.30;42.60;;;;;;5075251;28;20205;-68
2021/12/12 06:41:02;;;;;;;4.40;4.10;;;17.30;42.60;;;;;;5075167;28;20698;-67
2021/12/12 06:43:29;;;;;;;4.32;4.00;;;17.30;42.50;;;;;;5075186;28;20246;-65
2021/12/12 06:45:57;;;;;;;4.43;4.03;;;17.30;42.40;;;;;;5075099;28;20241;-67
2021/12/12 06:48:24;;;;;;;4.07;3.78;;;17.30;42.50;;;;;;5076294;28;20229;-66
2021/12/12 06:50:52;;;;;;;4.32;3.92;;;17.30;42.60;;;;;;5075169;28;20708;-66
2021/12/12 06:53:21;;;;;;;3.88;3.58;;;17.30;42.60;;;;;;5076253;28;20186;-66
2021/12/12 06:55:49;;;;;;;4.00;3.70;;;17.30;42.50;;;;;;5074806;28;20199;-67
2021/12/12 06:58:17;;;;;;;3.97;3.67;;;17.30;42.40;;;;;;5074466;28;20236;-68
2021/12/12 07:00:45;;;;;;;4.47;4.07;;;17.30;42.50;;;;;;5074591;28;20272;-66
2021/12/12 07:03:13;;;;;;;3.80;3.50;;;17.30;42.60;;;;;;5074505;28;20191;-67
2021/12/12 07:05:40;;;;;;;3.72;3.45;;;17.30;42.50;;;;;;5074451;28;20195;-67
2021/12/12 07:08:07;;;;;;;3.90;3.60;;;17.30;42.40;;;;;;5074650;28;20199;-67
2021/12/12 07:10:35;;;;;;;4.22;3.83;;;17.30;42.30;;;;;;5074496;28;20317;-66
2021/12/12 07:13:05;;;;;;;3.80;3.50;;;17.30;42.40;;;;;;5074575;28;20293;-66
2021/12/12 07:15:35;;;;;;;4.30;3.90;;;17.30;42.50;;;;;;5074619;28;20198;-67
2021/12/12 07:18:05;;;;;;;3.83;3.53;;;17.30;42.30;;;;;;5074987;28;20199;-67
2021/12/12 07:20:33;;;;;;;4.28;3.95;;;17.30;42.40;;;;;;5075715;28;20260;-69
2021/12/12 07:22:59;;;;;;;3.90;3.60;;;17.30;42.30;;;;;;5074418;28;20202;-67
2021/12/12 07:25:26;;;;;;;3.90;3.60;;;17.30;42.40;;;;;;5073774;28;20616;-69
2021/12/12 07:27:54;;;;;;;3.67;3.38;;;17.30;42.30;;;;;;5073757;28;20191;-67
2021/12/12 07:30:22;;;;;;;4.07;3.75;;;17.30;42.30;;;;;;5073865;28;20317;-68
2021/12/12 07:32:49;;;;;;;3.90;3.60;;;17.30;42.30;;;;;;5074265;28;20294;-67
2021/12/12 07:35:17;;;;;;;4.07;3.67;;;17.30;42.20;;;;;;5074494;28;20282;-67
2021/12/12 07:37:44;;;;;;;3.75;3.45;;;17.30;42.30;;;;;;5074473;28;20199;-66
2021/12/12 07:40:11;;;;;;;4.07;3.67;;;17.40;42.30;;;;;;5073774;28;20293;-68
2021/12/12 07:42:40;;;;;;;3.97;3.67;;;17.30;42.10;;;;;;5073469;28;20564;-69
2021/12/12 07:45:08;;;;;;;4.03;3.72;;;17.40;42.40;;;;;;5073312;28;20693;-65
2021/12/12 07:47:36;;;;;;;4.00;3.70;;;17.30;42.20;;;;;;5073314;28;20198;-66
2021/12/12 07:50:05;;;;;;;3.50;3.20;;;17.30;42.10;;;;;;5073349;28;20218;-66
2021/12/12 07:52:32;;;;;;;3.75;3.42;;;17.40;42.20;;;;;;5073048;28;20289;-67
2021/12/12 07:54:59;;;;;;;3.88;3.58;;;17.30;41.90;;;;;;5072949;28;20191;-67
2021/12/12 07:57:28;;;;;;;3.53;3.25;;;17.40;42.10;;;;;;5073590;28;20198;-66
2021/12/12 07:59:55;;;;;;;3.65;3.45;;;17.40;42.10;;;;;;5074095;28;20242;-67
2021/12/12 08:02:22;;;;;;;3.70;3.40;;;17.40;42.20;;;;;;5073129;28;20658;-69
2021/12/12 08:04:51;;;;;;;3.90;3.60;;;17.40;42.20;;;;;;5073868;28;20207;-65
2021/12/12 08:07:20;;;;;;;3.80;3.50;;;17.40;42.00;;;;;;5072696;28;20213;-68
2021/12/12 08:09:48;;;;;;;3.53;3.22;;;17.40;42.00;;;;;;5087012;22;20229;-69
2021/12/12 08:12:17;;;;;;;3.55;3.25;;;17.40;42.00;;;;;;5056689;28;20196;-70
2021/12/12 08:14:46;;;;;;;4.03;3.42;;;17.40;42.00;;;;;;5053931;28;20195;-69
2021/12/12 08:17:14;;;;;;;3.80;3.50;;;17.40;42.10;;;;;;5053395;28;20191;-70
2021/12/12 08:19:41;;;;;;;3.80;3.50;;;17.40;42.10;;;;;;5054718;28;20257;-69
2021/12/12 08:22:10;;;;;;;3.75;3.40;;;17.40;42.10;;;;;;5053349;28;20273;-70
2021/12/12 08:24:38;;;;;;;4.13;3.65;;;17.40;42.00;;;;;;5052929;28;20313;-70
2021/12/12 08:27:06;;;;;;;4.32;3.92;;;17.50;42.10;;;;;;5053220;28;20271;-69
2021/12/12 08:29:34;;;;;;;3.95;3.65;;;17.50;42.00;;;;;;5053435;28;20202;-69
2021/12/12 08:32:03;;;;;;;4.03;3.72;;;17.50;42.00;;;;;;5052741;28;20210;-70
2021/12/12 08:34:30;;;;;;;3.88;3.58;;;17.50;42.10;;;;;;5054799;28;20215;-70
2021/12/12 08:36:58;;;;;;;3.42;3.22;;;17.60;41.90;;;;;;5054432;28;20282;-70
2021/12/12 08:39:27;;;;;;;3.60;3.30;;;17.60;41.70;;;;;;5053638;28;20223;-70
2021/12/12 08:41:55;;;;;;;3.60;3.30;;;17.60;41.70;;;;;;5053465;28;20308;-70
2021/12/12 08:44:23;;;;;;;3.97;3.58;;;17.70;41.70;;;;;;5053131;28;20216;-70
2021/12/12 08:46:51;;;;;;;3.22;3.03;;;17.70;41.70;;;;;;5053467;28;20199;-70
2021/12/12 08:49:20;;;;;;;3.78;3.40;;;17.70;41.70;;;;;;5054516;28;20550;-70
2021/12/12 08:51:50;;;;;;;3.78;3.25;;;17.70;41.50;;;;;;5052941;28;20215;-70
2021/12/12 08:54:24;;;;;;;3.70;3.40;;;17.80;42.10;;;;;;5052867;28;20188;-70
2021/12/12 08:57:01;;;;;;;3.45;3.25;;;17.80;41.20;;;;;;5052917;28;20211;-69
2021/12/12 08:59:29;;;;;;;3.20;3.00;;;17.80;41.30;;;;;;5052639;28;20199;-70
2021/12/12 09:01:57;;;;;;;3.10;2.90;;;17.80;41.40;;;;;;5052604;28;20203;-70
2021/12/12 09:04:24;;;;;;;3.30;3.10;;;17.80;41.30;;;;;;5052521;28;20238;-69
2021/12/12 09:06:55;;;;;;;3.38;3.08;;;17.80;41.30;;;;;;5053689;28;20659;-69
2021/12/12 09:09:23;;;;;;;3.50;3.30;;;17.80;41.30;;;;;;5052710;28;20199;-69
2021/12/12 09:11:53;;;;;;;3.20;2.90;;;17.90;41.30;;;;;;5052688;28;20202;-69
2021/12/12 09:14:22;;;;;;;3.05;2.85;;;17.90;41.30;;;;;;5052318;28;20245;-69
2021/12/12 09:16:53;;;;;;;3.00;2.80;;;17.90;41.10;;;;;;5054214;28;20187;-69
2021/12/12 09:19:25;;;;;;;3.50;3.20;;;17.90;41.10;;;;;;5052190;28;20265;-70
2021/12/12 09:21:55;;;;;;;3.20;3.00;;;17.90;41.10;;;;;;5052237;28;20198;-70
2021/12/12 09:24:32;;;;;;;3.08;2.88;;;17.90;41.10;;;;;;5052075;28;20636;-69
2021/12/12 09:27:02;;;;;;;3.10;2.90;;;18.00;41.20;;;;;;5052526;28;20191;-69
2021/12/12 09:29:33;;;;;;;3.00;2.80;;;18.00;41.10;;;;;;5052126;28;20720;-69
2021/12/12 09:32:02;;;;;;;3.17;2.97;;;18.00;40.90;;;;;;5052313;28;20218;-70
2021/12/12 09:34:33;;;;;;;2.92;2.72;;;18.10;41.60;;;;;;5053182;28;20643;-70
2021/12/12 09:37:03;;;;;;;2.90;2.70;;;18.00;40.80;;;;;;5053258;28;20207;-69
2021/12/12 09:39:33;;;;;;;2.88;2.67;;;18.10;40.90;;;;;;5051775;28;20229;-69
2021/12/12 09:42:12;;;;;;;2.88;2.67;;;18.10;40.70;;;;;;5052499;28;20188;-69
2021/12/12 09:45:18;;;;;;;3.00;2.80;;;18.10;40.70;;;;;;5055427;28;20612;-69
2021/12/12 09:48:28;;;;;;;2.70;2.60;;;18.10;40.70;;;;;;5056291;28;20192;-69
2021/12/12 09:51:14;;;;;;;2.90;2.70;;;18.20;40.60;;;;;;5057150;28;20245;-69
2021/12/12 09:54:13;;;;;;;3.00;2.78;;;18.20;40.70;;;;;;5055992;28;20283;-69
2021/12/12 09:56:44;;;;;;;2.95;2.75;;;18.20;40.70;;;;;;5029675;28;20329;-69
2021/12/12 09:59:28;;;;;;;2.97;2.78;;;18.30;40.60;;;;;;5055968;28;20191;-69
2021/12/12 10:02:02;;;;;;;2.83;2.63;;;18.30;40.60;;;;;;5055642;28;20202;-69
2021/12/12 10:04:33;;;;;;;2.90;2.70;;;18.40;40.50;;;;;;5055807;28;20673;-69
2021/12/12 10:07:04;;;;;;;2.92;2.72;;;18.40;40.10;;;;;;5057467;28;20179;-70
2021/12/12 10:09:35;;;;;;;3.00;2.80;;;18.40;40.10;;;;;;5055666;28;20223;-69
2021/12/12 10:12:05;;;;;;;2.85;2.60;;;18.50;40.10;;;;;;5081982;22;20241;-69
2021/12/12 10:14:41;;;;;;;3.05;2.85;;;18.50;40.00;;;;;;5055876;28;20203;-69
2021/12/12 10:19:44;;;;;;;2.90;2.70;;;18.50;40.30;;;;;;5033836;28;20200;-67
2021/12/12 10:22:20;;;;;;;2.65;2.45;;;18.50;40.10;;;;;;5037961;28;20211;-67
2021/12/12 10:24:49;;;;;;;2.80;2.60;;;18.50;40.10;;;;;;5036038;28;20226;-67
2021/12/12 10:27:29;;;;;;;3.00;2.80;;;18.50;40.10;;;;;;5035656;28;20196;-67
2021/12/12 10:30:05;;;;;;;2.70;2.50;;;18.60;40.10;;;;;;5070613;22;20288;-67
2021/12/12 10:32:33;;;;;;;3.08;2.78;;;18.60;40.20;;;;;;5119549;22;20299;-67
2021/12/12 10:35:03;;;;;;;2.70;2.50;;;18.60;40.30;;;;;;5080481;28;20657;-67
2021/12/12 10:37:33;;;;;;;2.90;2.70;;;18.70;40.60;;;;;;5078800;28;20717;-67
2021/12/12 10:40:04;;;;;;;2.70;2.50;;;18.70;41.30;;;;;;5081403;28;20429;-67
2021/12/12 10:42:33;;;;;;;2.67;2.47;;;18.70;40.90;;;;;;5079666;28;20292;-67
2021/12/12 10:45:04;;;;;;;280.50;87.63;;;18.80;42.30;;;;;;5078580;28;20280;-67
2021/12/12 10:47:34;;;;;;;118.70;39.03;;;18.80;45.10;;;;;;5080006;28;20187;-67
2021/12/12 10:50:10;;;;;;;90.35;38.00;;;18.90;47.80;;;;;;5079797;28;20210;-67
2021/12/12 10:52:40;;;;;;;39.55;17.85;;;18.90;47.90;;;;;;5078096;28;20193;-67
2021/12/12 10:55:09;;;;;;;36.08;15.00;;;19.00;46.80;;;;;;5077482;28;20191;-67
2021/12/12 10:57:37;;;;;;;32.05;13.15;;;19.00;45.80;;;;;;5078332;28;20293;-67
2021/12/12 11:00:09;;;;;;;29.42;12.35;;;19.00;44.90;;;;;;5079306;28;20217;-67
2021/12/12 11:02:37;;;;;;;29.92;11.98;;;19.10;45.00;;;;;;5078510;28;20241;-67
2021/12/12 11:05:06;;;;;;;28.50;12.68;;;19.10;43.50;;;;;;5078142;28;20233;-67
2021/12/12 11:07:37;;;;;;;32.17;12.13;;;19.20;44.60;;;;;;5077611;28;20286;-67
2021/12/12 11:10:08;;;;;;;30.08;11.23;;;19.20;43.80;;;;;;5077284;28;20215;-67
2021/12/12 11:12:39;;;;;;;24.75;10.02;;;19.30;43.80;;;;;;5077034;28;20187;-67
2021/12/12 11:15:09;;;;;;;25.85;10.80;;;19.30;43.60;;;;;;5077833;28;20197;-67
2021/12/12 11:17:38;;;;;;;24.63;10.07;;;19.40;43.10;;;;;;5077971;28;20199;-67
2021/12/12 11:20:07;;;;;;;24.63;10.43;;;19.40;43.10;;;;;;5077706;28;20217;-66
2021/12/12 11:22:37;;;;;;;22.70;10.25;;;19.40;43.70;;;;;;5077952;28;20545;-66
2021/12/12 11:25:06;;;;;;;23.63;9.35;;;19.30;43.10;;;;;;5077390;28;20264;-66
2021/12/12 11:27:35;;;;;;;23.08;9.23;;;19.30;43.20;;;;;;5077584;28;20198;-66
2021/12/12 11:30:08;;;;;;;23.42;9.63;;;19.30;42.50;;;;;;5076581;28;20268;-66
2021/12/12 11:32:35;;;;;;;18.52;8.90;;;19.30;42.00;;;;;;5081517;28;20206;-66
2021/12/12 11:35:04;;;;;;;19.88;8.20;;;19.30;41.60;;;;;;5092432;28;20191;-67
2021/12/12 11:37:34;;;;;;;18.40;7.78;;;19.30;41.40;;;;;;5080329;28;20214;-67
2021/12/12 11:40:05;;;;;;;23.27;9.38;;;19.30;42.20;;;;;;5075843;28;20226;-66
2021/12/12 11:42:34;;;;;;;19.38;8.20;;;19.30;41.70;;;;;;5075943;28;20187;-66
2021/12/12 11:45:06;;;;;;;190.82;83.88;;;19.40;41.90;;;;;;5306200;22;20218;-67
2021/12/12 11:47:46;;;;;;;55.78;25.55;;;19.40;41.20;;;;;;5075196;28;20187;-67
2021/12/12 11:50:17;;;;;;;41.22;20.02;;;19.40;41.40;;;;;;5075960;28;20210;-67
2021/12/12 11:52:48;;;;;;;31.73;17.90;;;19.40;41.10;;;;;;5265160;22;20584;-66
2021/12/12 11:55:19;;;;;;;32.55;16.00;;;19.40;41.40;;;;;;5074389;28;20624;-67
2021/12/12 11:57:49;;;;;;;31.45;15.48;;;19.40;41.40;;;;;;5074080;28;20294;-67
2021/12/12 12:00:18;;;;;;;30.20;14.52;;;19.40;41.80;;;;;;5074716;28;20222;-68
2021/12/12 12:02:56;;;;;;;29.50;15.43;;;19.40;41.40;;;;;;5074589;28;20199;-68
2021/12/12 12:05:32;;;;;;;31.25;14.50;;;19.40;41.40;;;;;;5074520;28;20215;-68
2021/12/12 12:08:08;;;;;;;27.92;14.63;;;19.40;41.40;;;;;;5073456;28;20225;-68
2021/12/12 12:10:44;;;;;;;25.02;12.40;;;19.40;41.40;;;;;;5074224;28;20226;-67
2021/12/12 12:13:28;;;;;;;22.98;11.35;;;19.30;41.50;;;;;;5073577;28;20293;-68
2021/12/12 12:15:58;;;;;;;22.17;11.50;;;19.30;40.20;;;;;;5073928;28;20217;-68
2021/12/12 12:18:33;;;;;;;25.02;11.68;;;19.30;40.50;;;;;;5073888;28;20626;-69
2021/12/12 12:21:06;;;;;;;25.60;11.57;;;19.30;40.70;;;;;;5073403;28;20229;-68
2021/12/12 12:23:59;;;;;;;24.73;10.98;;;19.30;40.70;;;;;;5073272;28;20198;-68
2021/12/12 12:30:05;;;;;;;24.85;10.73;;;19.30;40.70;;;;;;5016159;28;20204;-68
2021/12/12 12:33:20;;;;;;;18.20;9.90;;;19.30;40.60;;;;;;5072843;28;20206;-68
2021/12/12 12:36:25;;;;;;;19.95;10.32;;;19.30;40.40;;;;;;5073019;28;20252;-68
2021/12/12 12:39:29;;;;;;;18.30;9.93;;;19.30;40.20;;;;;;5072991;28;20575;-68
2021/12/12 12:42:33;;;;;;;20.33;9.73;;;19.30;40.60;;;;;;5072929;28;20236;-68
2021/12/12 12:45:37;;;;;;;17.20;9.23;;;19.30;40.30;;;;;;5043430;28;20730;-68
2021/12/12 12:48:41;;;;;;;18.50;9.60;;;19.30;40.40;;;;;;5073486;28;20202;-67
2021/12/12 12:51:23;;;;;;;16.38;8.73;;;19.30;40.60;;;;;;5073831;28;20214;-67
2021/12/12 12:54:15;;;;;;;18.65;8.90;;;19.30;40.70;;;;;;5074374;28;20204;-66
2021/12/12 12:57:17;;;;;;;17.38;9.07;;;19.30;41.00;;;;;;5074488;28;20224;-67
2021/12/12 13:00:12;;;;;;;15.77;8.63;;;19.30;40.30;;;;;;5073647;28;20982;-67
2021/12/12 13:03:16;;;;;;;17.20;8.88;;;19.30;40.10;;;;;;5073985;28;20620;-68
2021/12/12 13:06:33;;;;;;;13.35;8.00;;;19.30;40.40;;;;;;5075009;28;20281;-67
2021/12/12 13:09:12;;;;;;;16.02;7.85;;;19.30;40.70;;;;;;5074507;28;20175;-67
2021/12/12 13:11:46;;;;;;;12.70;7.50;;;19.30;40.10;;;;;;5073062;28;20218;-67
2021/12/12 13:14:19;;;;;;;13.55;7.85;;;19.30;40.40;;;;;;5072654;28;20218;-67
2021/12/12 13:16:49;;;;;;;14.30;7.95;;;19.30;40.30;;;;;;5073893;28;20589;-68
2021/12/12 13:19:25;;;;;;;14.25;8.10;;;19.30;40.20;;;;;;5072419;28;20260;-68
2021/12/12 13:22:02;;;;;;;14.57;7.60;;;19.30;40.20;;;;;;5072902;28;20201;-68
2021/12/12 13:24:34;;;;;;;13.90;7.25;;;19.20;40.20;;;;;;5072800;28;20216;-68
2021/12/12 13:27:09;;;;;;;13.95;7.30;;;19.20;40.10;;;;;;5072556;28;20605;-68
2021/12/12 13:29:44;;;;;;;15.00;7.55;;;19.30;40.30;;;;;;5072515;28;20198;-68
2021/12/12 13:32:17;;;;;;;13.23;7.10;;;19.30;40.30;;;;;;5072490;28;20646;-67
2021/12/12 13:34:49;;;;;;;12.27;7.38;;;19.30;40.40;;;;;;5073994;28;20183;-69
2021/12/12 13:37:21;;;;;;;9.52;6.60;;;19.30;40.70;;;;;;5072622;28;20197;-68
2021/12/12 13:39:54;;;;;;;12.80;6.88;;;19.30;40.30;;;;;;5072373;28;20771;-69
2021/12/12 13:42:24;;;;;;;9.38;6.45;;;19.30;40.30;;;;;;5072384;28;20203;-69
2021/12/12 13:45:01;;;;;;;10.00;6.18;;;19.30;40.50;;;;;;5072464;28;20254;-69
2021/12/12 13:47:38;;;;;;;9.85;6.45;;;19.30;40.30;;;;;;5072263;28;20309;-68
2021/12/12 13:50:07;;;;;;;9.75;6.13;;;19.20;40.30;;;;;;5072258;28;20665;-67
2021/12/12 13:52:39;;;;;;;11.65;6.35;;;19.20;40.30;;;;;;5103898;22;21206;-68
2021/12/12 13:55:11;;;;;;;9.80;6.00;;;19.20;40.30;;;;;;5072095;28;20244;-68
2021/12/12 13:57:44;;;;;;;10.45;6.32;;;19.20;40.20;;;;;;5073422;28;20181;-68
2021/12/12 14:00:14;;;;;;;11.60;6.63;;;19.20;40.60;;;;;;5071394;28;20792;-68
2021/12/12 14:02:43;;;;;;;10.85;6.57;;;19.20;40.40;;;;;;5071321;28;20195;-68
2021/12/12 14:05:14;;;;;;;9.77;5.57;;;19.20;40.20;;;;;;5071478;28;20187;-68
2021/12/12 14:07:47;;;;;;;10.13;5.95;;;19.20;40.30;;;;;;5071257;28;20215;-68
2021/12/12 14:10:17;;;;;;;9.80;5.68;;;19.20;40.60;;;;;;5096225;22;20272;-64
2021/12/12 14:12:46;;;;;;;10.30;5.78;;;19.20;40.30;;;;;;5050326;28;20745;-64
2021/12/12 14:15:14;;;;;;;11.20;5.88;;;19.20;40.70;;;;;;5050980;28;20196;-64
2021/12/12 14:17:45;;;;;;;12.57;6.18;;;19.20;40.50;;;;;;5061011;28;20211;-64
2021/12/12 14:20:14;;;;;;;8.55;5.55;;;19.20;40.50;;;;;;5052340;28;20183;-64